createdAt,value
2023-03-22T00:00:19.853Z,100758.72
2023-03-22T00:02:49.168Z,100750.91
2023-03-22T00:05:18.341Z,100753.84
2023-03-22T00:07:50.357Z,100751.09
2023-03-22T00:10:20.825Z,100749.03
2023-03-22T00:12:50.112Z,100748.72
2023-03-22T00:15:19.957Z,100745.00
2023-03-22T00:17:50.468Z,100754.75
2023-03-22T00:20:20.840Z,100751.56
2023-03-22T00:22:50.403Z,100741.88
2023-03-22T00:25:21.032Z,100744.00
2023-03-22T00:27:52.517Z,100738.13
2023-03-22T00:30:21.886Z,100737.34
2023-03-22T00:32:50.769Z,100718.34
2023-03-22T00:35:19.884Z,100719.06
2023-03-22T00:37:51.025Z,100724.28
2023-03-22T00:40:22.214Z,100713.91
2023-03-22T00:42:52.193Z,100712.25
2023-03-22T00:45:21.487Z,100714.19
2023-03-22T00:47:50.613Z,100696.72
2023-03-22T00:50:20.812Z,100705.50
2023-03-22T00:52:50.097Z,100700.28
2023-03-22T00:55:19.377Z,100696.28
2023-03-22T00:57:49.579Z,100690.69
2023-03-22T01:00:19.162Z,100690.78
2023-03-22T01:02:48.431Z,100685.44
2023-03-22T01:05:22.323Z,100677.09
2023-03-22T01:07:52.441Z,100675.56
2023-03-22T01:10:21.618Z,100674.47
2023-03-22T01:12:52.414Z,100668.94
2023-03-22T01:15:23.632Z,100661.38
2023-03-22T01:17:54.684Z,100661.50
2023-03-22T01:20:23.925Z,100661.16
2023-03-22T01:22:53.104Z,100652.22
2023-03-22T01:25:22.353Z,100658.66
2023-03-22T01:27:52.915Z,100642.81
2023-03-22T01:30:22.056Z,100633.09
2023-03-22T01:32:51.644Z,100633.78
2023-03-22T01:35:20.359Z,100620.38
2023-03-22T01:37:49.570Z,100615.25
2023-03-22T01:40:19.450Z,100513.56
2023-03-22T01:42:48.536Z,100603.91
2023-03-22T01:45:40.168Z,100606.66
2023-03-22T01:48:20.776Z,100595.34
2023-03-22T01:50:56.421Z,100593.59
2023-03-22T01:53:29.514Z,100586.72
2023-03-22T01:55:59.595Z,100585.94
2023-03-22T01:58:35.447Z,100582.50
2023-03-22T02:01:06.909Z,100577.25
2023-03-22T02:03:53.558Z,100567.25
2023-03-22T02:06:24.760Z,100572.00
2023-03-22T02:09:01.436Z,100558.63
2023-03-22T02:11:33.806Z,100554.56
2023-03-22T02:14:16.919Z,100559.63
2023-03-22T02:17:10.873Z,100551.84
2023-03-22T02:20:06.356Z,100554.94
2023-03-22T02:22:42.311Z,100549.13
2023-03-22T02:25:29.938Z,100545.44
2023-03-22T02:28:15.189Z,100547.69
2023-03-22T02:31:01.600Z,100537.69
2023-03-22T02:33:36.931Z,100541.78
2023-03-22T02:36:19.138Z,100537.94
2023-03-22T02:39:04.677Z,100527.84
2023-03-22T02:41:42.965Z,100524.69
2023-03-22T02:44:19.412Z,100522.75
2023-03-22T02:46:51.551Z,100528.75
2023-03-22T02:49:23.483Z,100528.03
2023-03-22T02:51:57.602Z,100533.34
2023-03-22T02:54:31.549Z,100531.16
2023-03-22T02:57:03.191Z,100527.75
2023-03-22T02:59:33.136Z,100523.34
2023-03-22T03:02:05.270Z,100518.16
2023-03-22T03:04:39.152Z,100523.63
2023-03-22T03:07:11.058Z,100521.63
2023-03-22T03:09:44.435Z,100522.81
2023-03-22T03:12:16.146Z,100506.75
2023-03-22T03:14:45.390Z,100510.09
2023-03-22T03:17:21.007Z,100502.00
2023-03-22T03:19:56.987Z,100502.41
2023-03-22T03:22:32.549Z,100497.03
2023-03-22T03:25:08.439Z,100499.06
2023-03-22T03:27:44.420Z,100498.72
2023-03-22T03:30:15.502Z,100492.72
2023-03-22T03:32:49.187Z,100491.13
2023-03-22T03:35:24.028Z,100495.41
2023-03-22T03:37:57.703Z,100487.63
2023-03-22T03:40:31.815Z,100480.44
2023-03-22T03:43:04.775Z,100491.53
2023-03-22T03:45:36.252Z,100491.47
2023-03-22T03:48:08.088Z,100492.44
2023-03-22T03:50:39.804Z,100485.16
2023-03-22T03:53:09.381Z,100484.16
2023-03-22T03:55:40.071Z,100488.25
2023-03-22T03:58:10.314Z,100490.41
2023-03-22T04:00:40.475Z,100489.69
2023-03-22T04:03:33.227Z,100485.94
2023-03-22T04:06:25.709Z,100509.41
2023-03-22T04:08:58.842Z,100489.16
2023-03-22T04:11:35.582Z,100485.41
2023-03-22T04:14:06.852Z,100477.91
2023-03-22T04:16:36.359Z,100475.13
2023-03-22T04:19:06.196Z,100473.63
2023-03-22T04:21:35.246Z,100476.72
2023-03-22T04:24:04.662Z,100472.53
2023-03-22T04:26:39.242Z,100474.78
2023-03-22T04:29:23.158Z,100470.97
2023-03-22T04:31:56.082Z,100462.69
2023-03-22T04:34:42.969Z,100465.63
2023-03-22T04:37:14.042Z,100455.81
2023-03-22T04:39:56.115Z,100454.03
2023-03-22T04:42:28.646Z,100453.59
2023-03-22T04:45:17.335Z,100454.59
2023-03-22T04:47:51.332Z,100447.50
2023-03-22T04:50:19.773Z,100447.34
2023-03-22T04:52:52.817Z,100450.91
2023-03-22T04:55:21.292Z,100452.28
2023-03-22T04:57:54.734Z,100449.06
2023-03-22T05:00:30.437Z,100445.06
2023-03-22T05:03:01.873Z,100441.03
2023-03-22T05:05:37.570Z,100439.81
2023-03-22T05:08:06.946Z,100440.03
2023-03-22T05:10:35.811Z,100440.41
2023-03-22T05:13:06.219Z,100431.63
2023-03-22T05:15:41.874Z,100429.19
2023-03-22T05:18:11.565Z,100421.63
2023-03-22T05:20:42.535Z,100427.09
2023-03-22T05:23:19.337Z,100422.47
2023-03-22T05:25:51.088Z,100428.75
2023-03-22T05:28:22.350Z,100430.28
2023-03-22T05:30:58.724Z,100424.34
2023-03-22T05:34:38.899Z,100414.22
2023-03-22T05:37:21.123Z,100417.88
2023-03-22T05:39:53.621Z,100412.53
2023-03-22T05:42:25.600Z,100414.53
2023-03-22T05:44:57.735Z,100401.91
2023-03-22T05:47:26.633Z,100399.22
2023-03-22T05:50:05.444Z,100402.31
2023-03-22T05:52:35.901Z,100393.28
2023-03-22T05:55:32.193Z,100400.44
2023-03-22T05:58:05.149Z,100395.03
2023-03-22T06:00:39.608Z,100392.75
2023-03-22T06:03:28.790Z,100288.34
2023-03-22T06:06:10.538Z,100400.59
2023-03-22T06:08:45.344Z,100396.41
2023-03-22T06:11:14.484Z,100395.19
2023-03-22T06:13:42.933Z,100401.28
2023-03-22T06:16:14.680Z,100399.06
2023-03-22T06:18:44.493Z,100402.25
2023-03-22T06:21:14.371Z,100392.72
2023-03-22T06:23:43.668Z,100389.28
2023-03-22T06:26:12.638Z,100391.09
2023-03-22T06:28:43.016Z,100397.28
2023-03-22T06:31:14.503Z,100399.78
2023-03-22T06:33:59.276Z,100399.88
2023-03-22T06:36:36.465Z,100401.81
2023-03-22T06:39:12.425Z,100408.25
2023-03-22T06:41:43.422Z,100397.72
2023-03-22T06:44:12.219Z,100387.34
2023-03-22T06:46:54.226Z,100395.31
2023-03-22T06:49:43.065Z,100397.09
2023-03-22T06:52:17.065Z,100387.34
2023-03-22T06:54:46.352Z,100391.00
2023-03-22T06:57:14.824Z,100395.91
2023-03-22T06:59:47.422Z,100394.84
2023-03-22T07:02:17.348Z,100391.94
2023-03-22T07:05:06.217Z,100400.19
2023-03-22T07:07:35.082Z,100386.22
2023-03-22T07:10:08.026Z,100390.22
2023-03-22T07:12:36.636Z,100382.91
2023-03-22T07:15:11.079Z,100385.91
2023-03-22T07:18:04.164Z,100392.41
2023-03-22T07:20:37.065Z,100382.75
2023-03-22T07:23:06.556Z,100379.63
2023-03-22T07:25:44.106Z,100385.13
2023-03-22T07:28:24.411Z,100377.16
2023-03-22T07:31:00.610Z,100391.00
2023-03-22T07:33:31.710Z,100381.66
2023-03-22T07:36:00.600Z,100387.63
2023-03-22T07:38:29.772Z,100373.28
2023-03-22T07:40:58.201Z,100374.53
2023-03-22T07:43:50.846Z,100378.22
2023-03-22T07:46:23.478Z,100388.31
2023-03-22T07:49:13.750Z,100382.81
2023-03-22T07:51:48.130Z,100392.75
2023-03-22T07:54:32.074Z,100383.97
2023-03-22T07:57:01.738Z,100388.22
2023-03-22T07:59:31.288Z,100386.84
2023-03-22T08:02:00.576Z,100395.44
2023-03-22T08:04:36.466Z,100403.53
2023-03-22T08:07:26.037Z,100384.22
2023-03-22T08:09:54.600Z,100402.81
2023-03-22T08:12:25.467Z,100385.31
2023-03-22T08:15:01.734Z,100381.50
2023-03-22T08:17:30.748Z,100388.69
2023-03-22T08:20:00.736Z,100394.50
2023-03-22T08:22:44.922Z,100391.47
2023-03-22T08:25:29.651Z,100391.84
2023-03-22T08:28:07.192Z,100390.50
2023-03-22T08:30:35.985Z,100393.59
2023-03-22T08:33:05.432Z,100389.94
2023-03-22T08:35:36.310Z,100384.88
2023-03-22T08:38:05.372Z,100390.66
2023-03-22T08:40:42.564Z,100391.72
2023-03-22T08:43:11.175Z,100387.19
2023-03-22T08:45:39.832Z,100387.59
2023-03-22T08:48:16.036Z,100391.78
2023-03-22T08:51:04.790Z,100273.34
2023-03-22T08:53:53.537Z,100386.75
2023-03-22T08:56:41.896Z,100378.72
2023-03-22T08:59:27.449Z,100385.91
2023-03-22T09:02:24.790Z,100390.81
2023-03-22T09:04:54.630Z,100392.84
2023-03-22T09:07:25.255Z,100382.44
2023-03-22T09:10:12.142Z,100383.00
2023-03-22T09:12:44.237Z,100386.00
2023-03-22T09:15:12.813Z,100378.41
2023-03-22T09:17:47.003Z,100388.88
2023-03-22T09:20:16.195Z,100386.72
2023-03-22T09:22:48.760Z,100376.88
2023-03-22T09:25:19.775Z,100385.59
2023-03-22T09:27:50.455Z,100385.22
2023-03-22T09:30:19.106Z,100383.00
2023-03-22T09:32:47.874Z,100383.66
2023-03-22T09:35:18.213Z,100380.31
2023-03-22T09:38:08.621Z,100376.66
2023-03-22T09:40:38.868Z,100377.19
2023-03-22T09:43:10.400Z,100370.47
2023-03-22T09:45:42.468Z,100379.16
2023-03-22T09:48:14.583Z,100376.09
2023-03-22T09:50:46.360Z,100384.97
2023-03-22T09:53:17.216Z,100381.91
2023-03-22T09:55:47.168Z,100375.50
2023-03-22T09:58:22.173Z,100387.19
2023-03-22T10:00:54.505Z,100385.03
2023-03-22T10:03:28.537Z,100380.78
2023-03-22T10:05:59.984Z,100373.28
2023-03-22T10:08:48.031Z,100384.38
2023-03-22T10:11:23.007Z,100388.28
2023-03-22T10:13:57.722Z,100298.88
2023-03-22T10:16:28.071Z,100389.13
2023-03-22T10:18:59.250Z,100380.41
2023-03-22T10:21:27.976Z,100386.75
2023-03-22T10:23:58.269Z,100382.44
2023-03-22T10:26:30.497Z,100379.47
2023-03-22T10:29:04.000Z,100385.66
2023-03-22T10:31:33.329Z,100375.31
2023-03-22T10:34:03.732Z,100374.66
2023-03-22T10:36:35.505Z,100353.50
2023-03-22T10:39:07.060Z,100347.16
2023-03-22T10:41:37.593Z,100349.47
2023-03-22T10:44:07.136Z,100353.25
2023-03-22T10:46:38.342Z,100341.53
2023-03-22T10:49:07.661Z,100345.91
2023-03-22T10:51:41.544Z,100351.16
2023-03-22T10:54:13.607Z,100346.03
2023-03-22T10:56:44.987Z,100362.88
2023-03-22T10:59:28.565Z,100357.06
2023-03-22T11:01:59.409Z,100349.59
2023-03-22T11:04:28.455Z,100351.94
2023-03-22T11:06:56.949Z,100348.53
2023-03-22T11:09:25.845Z,100336.25
2023-03-22T11:11:59.391Z,100347.00
2023-03-22T11:14:29.856Z,100348.94
2023-03-22T11:17:00.714Z,100366.56
2023-03-22T11:19:32.727Z,100364.84
2023-03-22T11:22:01.635Z,100370.84
2023-03-22T11:24:32.368Z,100367.53
2023-03-22T11:27:06.461Z,100277.16
2023-03-22T11:29:41.010Z,100382.78
2023-03-22T11:32:20.763Z,100404.72
2023-03-22T11:34:49.448Z,100393.56
2023-03-22T11:37:18.301Z,100394.84
2023-03-22T11:39:49.200Z,100389.63
2023-03-22T11:42:20.760Z,100398.00
2023-03-22T11:44:49.431Z,100383.63
2023-03-22T11:47:17.903Z,100395.69
2023-03-22T11:49:47.317Z,100383.84
2023-03-22T11:52:17.939Z,100384.59
2023-03-22T11:54:47.345Z,100385.38
2023-03-22T11:57:18.563Z,100382.69
2023-03-22T11:59:49.799Z,100392.84
2023-03-22T12:02:23.952Z,100383.69
2023-03-22T12:04:57.355Z,100390.50
2023-03-22T12:07:26.372Z,100296.34
2023-03-22T12:09:59.147Z,100389.63
2023-03-22T12:12:31.515Z,100391.94
2023-03-22T12:15:04.731Z,100394.28
2023-03-22T12:17:37.765Z,100387.50
2023-03-22T12:20:11.875Z,100383.06
2023-03-22T12:22:43.497Z,100386.75
2023-03-22T12:25:13.598Z,100367.19
2023-03-22T12:27:43.593Z,100367.19
2023-03-22T12:30:17.602Z,100366.03
2023-03-22T12:32:48.434Z,100367.63
2023-03-22T12:35:22.143Z,100374.84
2023-03-22T12:37:52.750Z,100370.06
2023-03-22T12:40:24.023Z,100355.81
2023-03-22T12:43:01.743Z,100360.16
2023-03-22T12:45:33.429Z,100360.84
2023-03-22T12:48:07.250Z,100367.91
2023-03-22T12:50:38.323Z,100363.19
2023-03-22T12:53:07.425Z,100377.81
2023-03-22T12:55:37.417Z,100372.06
2023-03-22T12:58:07.477Z,100380.97
2023-03-22T13:00:41.822Z,100373.19
2023-03-22T13:03:21.427Z,100376.72
2023-03-22T13:05:51.327Z,100371.75
2023-03-22T13:08:20.579Z,100378.06
2023-03-22T13:10:59.838Z,100368.97
2023-03-22T13:13:45.034Z,100380.06
2023-03-22T13:16:22.909Z,100385.78
2023-03-22T13:19:03.201Z,100374.69
2023-03-22T13:21:34.783Z,100373.53
2023-03-22T13:24:20.522Z,100381.75
2023-03-22T13:26:51.512Z,100382.34
2023-03-22T13:29:21.841Z,100372.00
2023-03-22T13:32:00.025Z,100364.13
2023-03-22T13:34:34.001Z,100362.91
2023-03-22T13:37:03.669Z,100362.78
2023-03-22T13:39:34.787Z,100366.97
2023-03-22T13:42:07.276Z,100365.13
2023-03-22T13:44:39.973Z,100360.84
2023-03-22T13:47:29.842Z,100369.91
2023-03-22T13:50:02.370Z,100356.56
2023-03-22T13:52:36.434Z,100356.91
2023-03-22T13:55:18.580Z,100347.97
2023-03-22T13:57:49.348Z,100346.63
2023-03-22T14:00:35.609Z,100339.03
2023-03-22T14:03:09.733Z,100340.97
2023-03-22T14:05:38.805Z,100327.13
2023-03-22T14:08:07.507Z,100340.25
2023-03-22T14:10:41.237Z,100328.97
2023-03-22T14:13:15.635Z,100326.31
2023-03-22T14:15:47.065Z,100324.69
2023-03-22T14:18:19.298Z,100318.59
2023-03-22T14:20:51.729Z,100322.28
